Aérodrome :
LOGIN :

S'inscrire | Disclaimer

   EN    FR    IT 

 










Légende :    VFR   VFR Marginal   IFR   IFR Intensif   IFR Très Intensif
Visi : 
Plafond : 
>= 8 km
>= 3000ft
5 à 8 km
1000 à 3000 ft
1500m à 5 km
500 à 1000 ft
800 à 1500m
200 à 500 ft
< 800m
< 200 ft
Symboles :   Orages  Brouillard  Fortes neiges  Fortes précipitations  Vent > 20 kt
SIGMETs :   Divers  Orages  Givrage  Turbulence  Onde Orograph.  Cendres Volcan.







- Altitude de l'aérodrome : 1411 ft
- Code IATA : ZHI


LSZG - Grenchen

DERNIER METAR :
  • 250920Z VRB03KT 9999 FEW031 11/M01 Q1022 NOSIG

METARs EXPIRÉS :
  • 250850Z VRB03KT 9999 FEW031 10/M01 Q1022 NOSIG
  • 250820Z 22004KT 8000 FEW031 09/03 Q1023 NOSIG
  • 250750Z AUTO 14002KT 7000 FEW035 08/05 Q1023
  • 250720Z AUTO 12002KT 4900 NCD 06/04 Q1022
  • 250650Z AUTO VRB01KT 5000 NCD 05/04 Q1022

TAF TAF LSZG
Valide du 25 à 09h jusqu'au 25 à 18h UTC


250825Z 2509/2518 VRB03KT 7000 FEW035
PROB30
TEMPO 2511/2518 33010G25KT SHRA
ATIS : +41 32 396 96 33
Pas de NOTAMs connus pour ce terrain.



MET'MAP, la Météo Aéronautique d'un coup d'oeil ! - Copyright ORBIFLY Décembre 2007 - Disclaimer

ORBIFLY MET'MAP TEAM :

Programmation & Développement : Alexandra Zaïnal
Conception & Développement : Baudouin d'Aumeries
Co-Programmation & Développement : Marc-Olivier Méhu
Soutien technique & logistique : Manuel Goepfert

Contact : metmap@orbifly.com




SOURCES & CREDITS :

   NOAA